createdAt,value
2019-02-08T00:01:20.336Z,5.00
2019-02-08T00:03:44.840Z,4.53
2019-02-08T00:06:09.391Z,3.83
2019-02-08T00:08:34.357Z,3.50
2019-02-08T00:10:58.744Z,3.50
2019-02-08T00:13:23.245Z,3.53
2019-02-08T00:15:47.853Z,3.70
2019-02-08T00:18:13.018Z,3.27
2019-02-08T00:20:37.490Z,3.13
2019-02-08T00:23:02.054Z,3.23
2019-02-08T00:25:26.621Z,3.23
2019-02-08T00:27:51.759Z,4.03
2019-02-08T00:30:24.709Z,4.40
2019-02-08T00:32:49.340Z,4.83
2019-02-08T00:35:14.484Z,5.20
2019-02-08T00:37:39.045Z,5.13
2019-02-08T00:40:05.187Z,5.60
2019-02-08T00:42:29.582Z,5.80
2019-02-08T00:44:54.011Z,5.93
2019-02-08T00:47:18.428Z,6.40
2019-02-08T00:49:42.918Z,6.00
2019-02-08T00:52:07.739Z,7.00
2019-02-08T00:54:32.182Z,6.83
2019-02-08T00:56:56.601Z,7.80
2019-02-08T00:59:21.027Z,7.03
2019-02-08T01:01:45.606Z,6.47
2019-02-08T01:04:10.187Z,6.93
2019-02-08T01:06:34.670Z,7.07
2019-02-08T01:08:59.108Z,7.23
2019-02-08T01:11:23.516Z,8.03
2019-02-08T01:13:47.964Z,7.90
2019-02-08T01:16:12.438Z,6.90
2019-02-08T01:18:36.912Z,7.83
2019-02-08T01:21:01.611Z,8.10
2019-02-08T01:23:26.151Z,9.50
2019-02-08T01:25:50.573Z,8.40
2019-02-08T01:28:14.968Z,8.07
2019-02-08T01:30:39.459Z,8.10
2019-02-08T01:33:04.213Z,8.93
2019-02-08T01:35:29.477Z,8.03
2019-02-08T01:37:54.412Z,9.23
2019-02-08T01:40:29.957Z,7.77
2019-02-08T01:42:54.499Z,7.93
2019-02-08T01:45:23.954Z,8.63
2019-02-08T01:47:48.620Z,7.97
2019-02-08T01:50:15.861Z,7.70
2019-02-08T01:52:40.259Z,8.00
2019-02-08T01:55:06.837Z,8.47
2019-02-08T01:57:31.315Z,7.47
2019-02-08T01:59:55.725Z,8.43
2019-02-08T02:02:20.228Z,8.00
2019-02-08T02:04:44.713Z,8.00
2019-02-08T02:07:09.144Z,7.47
2019-02-08T02:09:33.541Z,7.53
2019-02-08T02:11:57.959Z,8.00
2019-02-08T02:14:22.438Z,7.23
2019-02-08T02:16:46.930Z,7.83
2019-02-08T02:19:11.401Z,7.30
2019-02-08T02:21:35.823Z,7.17
2019-02-08T02:24:00.218Z,7.50
2019-02-08T02:26:24.644Z,6.67
2019-02-08T02:28:49.054Z,7.47
2019-02-08T02:31:13.459Z,6.60
2019-02-08T02:33:37.894Z,6.73
2019-02-08T02:36:02.354Z,6.87
2019-02-08T02:38:26.772Z,6.70
2019-02-08T02:40:51.181Z,6.67
2019-02-08T02:43:15.634Z,8.20
2019-02-08T02:45:40.955Z,7.27
2019-02-08T02:48:07.133Z,7.63
2019-02-08T02:50:31.668Z,6.73
2019-02-08T02:52:56.137Z,7.13
2019-02-08T02:55:28.033Z,6.60
2019-02-08T02:57:53.112Z,6.47
2019-02-08T03:00:23.808Z,6.33
2019-02-08T03:02:48.370Z,6.47
2019-02-08T03:05:13.405Z,6.60
2019-02-08T03:07:37.993Z,6.00
2019-02-08T03:10:02.533Z,6.07
2019-02-08T03:12:26.976Z,5.93
2019-02-08T03:14:51.438Z,6.07
2019-02-08T03:17:15.846Z,5.90
2019-02-08T03:19:40.262Z,5.67
2019-02-08T03:22:04.721Z,5.13
2019-02-08T03:24:29.281Z,5.53
2019-02-08T03:26:54.054Z,5.80
2019-02-08T03:29:18.478Z,5.57
2019-02-08T03:31:42.949Z,5.87
2019-02-08T03:34:07.453Z,4.97
2019-02-08T03:36:31.856Z,5.77
2019-02-08T03:38:56.278Z,5.40
2019-02-08T03:41:20.677Z,4.77
2019-02-08T03:43:45.157Z,4.53
2019-02-08T03:46:09.647Z,4.57
2019-02-08T03:48:34.117Z,5.80
2019-02-08T03:50:58.703Z,4.60
2019-02-08T03:53:23.240Z,4.53
2019-02-08T03:55:47.734Z,5.03
2019-02-08T03:58:12.273Z,4.80
2019-02-08T04:00:47.646Z,4.43
2019-02-08T04:03:12.190Z,4.50
2019-02-08T04:05:36.760Z,4.40
2019-02-08T04:08:01.216Z,4.40
2019-02-08T04:10:25.796Z,4.40
2019-02-08T04:12:50.242Z,3.93
2019-02-08T04:15:17.496Z,3.90
2019-02-08T04:17:42.129Z,4.50
2019-02-08T04:20:09.178Z,4.40
2019-02-08T04:22:33.596Z,4.00
2019-02-08T04:24:58.069Z,4.10
2019-02-08T04:27:22.482Z,4.23
2019-02-08T04:29:46.886Z,4.13
2019-02-08T04:32:11.323Z,4.30
2019-02-08T04:34:35.775Z,3.97
2019-02-08T04:37:00.194Z,3.70
2019-02-08T04:39:24.605Z,4.53
2019-02-08T04:41:49.111Z,3.83
2019-02-08T04:44:13.510Z,4.10
2019-02-08T04:46:37.923Z,3.70
2019-02-08T04:49:02.332Z,3.87
2019-02-08T04:51:26.737Z,3.60
2019-02-08T04:53:51.152Z,3.70
2019-02-08T04:56:15.555Z,3.57
2019-02-08T04:58:40.000Z,3.60
2019-02-08T05:01:04.790Z,4.03
2019-02-08T05:03:29.222Z,3.60
2019-02-08T05:05:53.616Z,3.67
2019-02-08T05:08:18.035Z,3.57
2019-02-08T05:10:42.490Z,3.30
2019-02-08T05:13:07.151Z,3.63
2019-02-08T05:15:31.703Z,3.43
2019-02-08T05:17:56.118Z,3.80
2019-02-08T05:20:23.132Z,3.67
2019-02-08T05:22:47.684Z,3.00
2019-02-08T05:25:12.814Z,3.00
2019-02-08T05:27:37.288Z,3.43
2019-02-08T05:30:01.705Z,3.77
2019-02-08T05:32:26.104Z,3.07
2019-02-08T05:34:50.527Z,3.30
2019-02-08T05:37:14.988Z,3.70
2019-02-08T05:39:39.465Z,3.17
2019-02-08T05:42:03.936Z,3.63
2019-02-08T05:44:28.358Z,3.50
2019-02-08T05:46:52.758Z,3.40
2019-02-08T05:49:17.317Z,3.50
2019-02-08T05:51:41.719Z,3.07
2019-02-08T05:54:06.222Z,3.20
2019-02-08T05:56:30.604Z,3.80
2019-02-08T05:58:55.087Z,4.23
2019-02-08T06:01:19.620Z,3.47
2019-02-08T06:03:44.165Z,4.37
2019-02-08T06:06:08.660Z,4.13
2019-02-08T06:08:33.071Z,3.63
2019-02-08T06:10:57.486Z,3.60
2019-02-08T06:13:21.950Z,3.40
2019-02-08T06:15:46.456Z,3.60
2019-02-08T06:18:11.385Z,2.97
2019-02-08T06:20:36.045Z,3.40
2019-02-08T06:23:00.441Z,3.80
2019-02-08T06:25:25.180Z,3.73
2019-02-08T06:27:49.869Z,3.50
2019-02-08T06:30:17.329Z,3.63
2019-02-08T06:32:41.807Z,3.63
2019-02-08T06:35:06.971Z,3.70
2019-02-08T06:37:31.436Z,3.83
2019-02-08T06:39:55.854Z,3.97
2019-02-08T06:42:20.283Z,3.80
2019-02-08T06:44:44.753Z,3.87
2019-02-08T06:47:09.248Z,3.87
2019-02-08T06:49:33.657Z,3.90
2019-02-08T06:51:58.086Z,4.07
2019-02-08T06:54:22.473Z,3.73
2019-02-08T06:56:51.277Z,3.97
2019-02-08T06:59:17.310Z,3.43
2019-02-08T07:01:43.374Z,3.47
2019-02-08T07:04:12.520Z,4.30
2019-02-08T07:06:47.328Z,3.77
2019-02-08T07:09:13.500Z,4.17
2019-02-08T07:11:39.626Z,3.90
2019-02-08T07:14:09.116Z,4.20
2019-02-08T07:16:41.095Z,4.33
2019-02-08T07:19:13.709Z,3.90
2019-02-08T07:21:42.872Z,3.87
2019-02-08T07:24:15.312Z,4.00
2019-02-08T07:26:53.133Z,4.67
2019-02-08T07:29:25.217Z,3.70
2019-02-08T07:31:51.257Z,4.03
2019-02-08T07:34:23.489Z,4.43
2019-02-08T07:36:55.666Z,4.43
2019-02-08T07:39:31.115Z,4.83
2019-02-08T07:41:57.798Z,4.20
2019-02-08T07:44:28.703Z,4.87
2019-02-08T07:47:01.971Z,3.77
2019-02-08T07:49:30.168Z,3.53
2019-02-08T07:51:59.036Z,5.60
2019-02-08T07:54:31.357Z,3.73
2019-02-08T07:56:58.041Z,4.00
2019-02-08T07:59:25.145Z,3.97
2019-02-08T08:02:03.507Z,3.93
2019-02-08T08:04:46.613Z,4.07
2019-02-08T08:07:18.919Z,3.63
2019-02-08T08:09:48.467Z,3.60
2019-02-08T08:12:14.857Z,3.47
2019-02-08T08:14:47.154Z,3.67
2019-02-08T08:17:22.266Z,4.17
2019-02-08T08:20:07.242Z,3.27
2019-02-08T08:22:36.116Z,3.40
2019-02-08T08:25:07.563Z,3.13
2019-02-08T08:27:36.803Z,3.63
2019-02-08T08:30:05.916Z,4.57
2019-02-08T08:32:35.428Z,3.40
2019-02-08T08:35:14.902Z,3.07
2019-02-08T08:38:09.310Z,3.60
2019-02-08T08:40:57.801Z,3.40
2019-02-08T08:43:27.808Z,3.17
2019-02-08T08:46:11.579Z,3.40
2019-02-08T08:48:39.043Z,3.33
2019-02-08T08:51:27.512Z,3.10
2019-02-08T08:54:14.348Z,3.47
2019-02-08T08:56:53.395Z,3.37
2019-02-08T08:59:35.721Z,3.63
2019-02-08T09:02:18.093Z,3.80
2019-02-08T09:04:54.494Z,3.00
2019-02-08T09:07:33.737Z,3.77
2019-02-08T09:10:17.739Z,3.57
2019-02-08T09:13:01.766Z,3.03
2019-02-08T09:15:47.209Z,2.90
2019-02-08T09:18:29.396Z,3.10
2019-02-08T09:21:17.606Z,4.50
2019-02-08T09:23:56.676Z,2.97
2019-02-08T09:26:32.820Z,9.50
2019-02-08T09:29:08.694Z,3.87
2019-02-08T09:31:41.496Z,5.30
2019-02-08T09:34:29.631Z,4.10
2019-02-08T09:37:12.686Z,3.30
2019-02-08T09:39:52.273Z,4.17
2019-02-08T09:42:25.782Z,3.43
2019-02-08T09:45:15.716Z,3.20
2019-02-08T09:47:49.060Z,3.53
2019-02-08T09:50:28.010Z,3.20
2019-02-08T09:53:11.719Z,3.30
2019-02-08T09:56:04.628Z,3.00
2019-02-08T09:58:43.723Z,3.00
2019-02-08T10:01:23.741Z,2.93
2019-02-08T10:04:05.353Z,2.90
2019-02-08T10:06:35.419Z,3.43
2019-02-08T10:09:08.534Z,3.73
2019-02-08T10:11:50.455Z,3.50
2019-02-08T10:14:37.203Z,3.40
2019-02-08T10:17:28.426Z,4.07
2019-02-08T10:20:16.539Z,3.80
2019-02-08T10:23:04.687Z,2.93
2019-02-08T10:25:51.302Z,3.13
2019-02-08T10:28:21.718Z,3.33
2019-02-08T10:30:49.167Z,3.27
2019-02-08T10:33:16.644Z,2.77
2019-02-08T10:35:58.770Z,2.97
2019-02-08T10:38:34.823Z,2.83
2019-02-08T10:41:16.929Z,2.90
2019-02-08T10:44:06.530Z,3.20
2019-02-08T10:46:59.304Z,3.43
2019-02-08T10:49:41.674Z,3.67
2019-02-08T10:52:24.718Z,3.27
2019-02-08T10:55:04.088Z,3.70
2019-02-08T10:57:56.890Z,3.40
2019-02-08T11:00:27.486Z,4.40
2019-02-08T11:03:15.836Z,3.10
2019-02-08T11:05:55.056Z,3.37
2019-02-08T11:08:31.070Z,3.10
2019-02-08T11:11:19.200Z,3.53
2019-02-08T11:13:55.395Z,3.17
2019-02-08T11:16:55.475Z,3.00
2019-02-08T11:19:19.785Z,3.30
2019-02-08T11:21:44.570Z,3.33
2019-02-08T11:24:08.983Z,3.90
2019-02-08T11:26:33.529Z,4.03
2019-02-08T11:28:57.925Z,3.53
2019-02-08T11:31:22.449Z,3.70
2019-02-08T11:33:46.945Z,4.10
2019-02-08T11:36:11.586Z,5.10
2019-02-08T11:38:36.061Z,6.53
2019-02-08T11:41:00.561Z,4.53
2019-02-08T11:43:25.133Z,4.97
2019-02-08T11:45:49.593Z,3.77
2019-02-08T11:48:14.100Z,4.47
2019-02-08T11:50:38.578Z,3.10
2019-02-08T11:53:03.078Z,3.33
2019-02-08T11:55:27.469Z,3.97
2019-02-08T11:57:51.963Z,4.50
2019-02-08T12:00:26.871Z,4.93
2019-02-08T12:02:51.371Z,4.93
2019-02-08T12:05:16.208Z,3.50
2019-02-08T12:07:40.767Z,3.50
2019-02-08T12:10:08.368Z,3.87
2019-02-08T12:12:32.779Z,3.60
2019-02-08T12:14:57.285Z,3.90
2019-02-08T12:17:21.760Z,3.67
2019-02-08T12:19:46.257Z,4.53
2019-02-08T12:22:10.680Z,3.27
2019-02-08T12:24:35.107Z,3.47
2019-02-08T12:26:59.530Z,4.60
2019-02-08T12:29:24.034Z,3.83
2019-02-08T12:31:48.507Z,2.83
2019-02-08T12:34:13.026Z,3.37
2019-02-08T12:36:37.416Z,3.30
2019-02-08T12:39:01.901Z,3.40
2019-02-08T12:41:26.418Z,3.33
2019-02-08T12:43:50.822Z,3.60
2019-02-08T12:46:15.336Z,4.13
2019-02-08T12:48:39.750Z,4.23
2019-02-08T12:51:04.323Z,3.77
2019-02-08T12:53:28.804Z,3.77
2019-02-08T12:55:53.248Z,3.67
2019-02-08T12:58:17.797Z,3.87
2019-02-08T13:00:42.293Z,3.70
2019-02-08T13:03:06.777Z,4.20
2019-02-08T13:05:31.347Z,3.37
2019-02-08T13:07:55.760Z,3.83
2019-02-08T13:10:28.552Z,3.60
2019-02-08T13:12:53.215Z,2.93
2019-02-08T13:15:18.058Z,2.83
2019-02-08T13:17:42.637Z,3.60
2019-02-08T13:20:10.255Z,3.97
2019-02-08T13:22:34.759Z,3.47
2019-02-08T13:24:59.149Z,3.47
2019-02-08T13:27:23.672Z,3.47
2019-02-08T13:29:48.063Z,3.27
2019-02-08T13:32:12.508Z,3.43
2019-02-08T13:34:36.908Z,3.40
2019-02-08T13:37:01.415Z,3.03
2019-02-08T13:39:25.841Z,3.50
2019-02-08T13:41:50.308Z,3.10
2019-02-08T13:44:14.812Z,3.17
2019-02-08T13:46:39.202Z,3.50
2019-02-08T13:49:05.400Z,3.00
2019-02-08T13:51:29.867Z,3.50
2019-02-08T13:53:54.362Z,3.10
2019-02-08T13:56:18.769Z,3.40
2019-02-08T13:58:43.201Z,3.00
2019-02-08T14:01:07.679Z,3.30
2019-02-08T14:03:32.272Z,3.23
2019-02-08T14:05:56.745Z,3.17
2019-02-08T14:08:22.162Z,3.33
2019-02-08T14:10:46.552Z,3.50
2019-02-08T14:13:11.023Z,4.10
2019-02-08T14:15:36.192Z,3.33
2019-02-08T14:18:00.602Z,2.80
2019-02-08T14:20:26.648Z,2.73
2019-02-08T14:22:51.231Z,3.10
2019-02-08T14:25:17.229Z,3.73
2019-02-08T14:27:41.781Z,3.50
2019-02-08T14:30:20.926Z,3.40
2019-02-08T14:32:46.207Z,3.03
2019-02-08T14:35:12.817Z,3.70
2019-02-08T14:37:37.242Z,9.13
2019-02-08T14:40:01.657Z,6.17
2019-02-08T14:42:26.056Z,3.83
2019-02-08T14:44:50.554Z,4.20
2019-02-08T14:47:15.092Z,3.90
2019-02-08T14:49:39.512Z,3.80
2019-02-08T14:52:04.149Z,2.97
2019-02-08T14:54:28.646Z,3.07
2019-02-08T14:56:53.109Z,3.80
2019-02-08T14:59:17.535Z,2.97
2019-02-08T15:01:42.066Z,3.20
2019-02-08T15:04:07.748Z,3.03
2019-02-08T15:06:32.452Z,3.30
2019-02-08T15:08:56.851Z,3.80
2019-02-08T15:11:21.287Z,3.70
2019-02-08T15:13:45.748Z,3.13
2019-02-08T15:16:10.242Z,4.13
2019-02-08T15:18:34.746Z,4.03
2019-02-08T15:20:59.185Z,4.20
2019-02-08T15:23:23.591Z,4.20
2019-02-08T15:25:48.047Z,4.83
2019-02-08T15:28:12.442Z,4.47
2019-02-08T15:30:37.601Z,4.50
2019-02-08T15:33:02.069Z,4.43
2019-02-08T15:35:29.195Z,3.30
2019-02-08T15:37:53.701Z,2.77
2019-02-08T15:40:32.905Z,3.00
2019-02-08T15:42:57.353Z,3.90
2019-02-08T15:45:22.496Z,3.30
2019-02-08T15:47:47.006Z,3.80
2019-02-08T15:50:11.941Z,3.10
2019-02-08T15:52:36.368Z,2.97
2019-02-08T15:55:00.766Z,3.30
2019-02-08T15:57:31.999Z,3.37
2019-02-08T15:59:51.380Z,3.13
2019-02-08T16:02:15.992Z,3.70
2019-02-08T16:04:40.510Z,3.13
2019-02-08T16:07:05.286Z,3.67
2019-02-08T16:09:29.832Z,3.90
2019-02-08T16:11:54.312Z,3.30
2019-02-08T16:14:18.819Z,3.47
2019-02-08T16:16:43.382Z,3.27
2019-02-08T16:19:07.882Z,3.00
2019-02-08T16:21:32.294Z,2.80
2019-02-08T16:23:56.786Z,3.63
2019-02-08T16:26:21.256Z,4.90
2019-02-08T16:28:45.743Z,3.20
2019-02-08T16:31:10.387Z,3.37
2019-02-08T16:33:34.809Z,14.57
2019-02-08T16:35:59.353Z,3.80
2019-02-08T16:38:23.863Z,3.20
2019-02-08T16:40:48.417Z,3.60
2019-02-08T16:43:13.320Z,2.93
2019-02-08T16:45:40.987Z,3.50
2019-02-08T16:48:13.396Z,3.70
2019-02-08T16:50:37.963Z,3.57
2019-02-08T16:53:02.721Z,3.60
2019-02-08T16:55:27.601Z,3.40
2019-02-08T16:57:52.542Z,3.50
2019-02-08T17:00:22.826Z,4.20
2019-02-08T17:02:47.374Z,6.03
2019-02-08T17:05:14.651Z,4.07
2019-02-08T17:07:39.069Z,3.43
2019-02-08T17:10:05.802Z,3.33
2019-02-08T17:12:30.290Z,2.90
2019-02-08T17:14:54.750Z,3.10
2019-02-08T17:17:26.791Z,3.20
2019-02-08T17:19:51.289Z,3.17
2019-02-08T17:22:15.836Z,3.20
2019-02-08T17:24:40.293Z,2.87
2019-02-08T17:27:04.937Z,2.87
2019-02-08T17:29:29.418Z,3.00
2019-02-08T17:31:53.943Z,2.80
2019-02-08T17:34:18.434Z,3.00
2019-02-08T17:36:42.894Z,2.93
2019-02-08T17:39:07.642Z,3.10
2019-02-08T17:41:32.148Z,3.10
2019-02-08T17:43:56.553Z,3.27
2019-02-08T17:46:21.116Z,2.67
2019-02-08T17:48:45.528Z,2.70
2019-02-08T17:51:10.096Z,2.70
2019-02-08T17:53:34.499Z,2.77
2019-02-08T17:55:58.939Z,3.00
2019-02-08T17:58:23.392Z,2.93
2019-02-08T18:00:52.375Z,2.80
2019-02-08T18:03:17.115Z,2.87
2019-02-08T18:05:41.612Z,2.73
2019-02-08T18:08:06.781Z,2.50
2019-02-08T18:10:31.252Z,2.97
2019-02-08T18:12:55.725Z,2.40
2019-02-08T18:15:24.038Z,2.60
2019-02-08T18:17:48.601Z,2.53
2019-02-08T18:20:27.707Z,2.60
2019-02-08T18:22:52.288Z,2.70
2019-02-08T18:25:16.927Z,2.80
2019-02-08T18:27:41.372Z,2.80
2019-02-08T18:30:11.454Z,2.83
2019-02-08T18:32:35.908Z,2.40
2019-02-08T18:35:00.386Z,2.30
2019-02-08T18:37:24.880Z,2.30
2019-02-08T18:39:49.296Z,2.87
2019-02-08T18:42:13.860Z,2.40
2019-02-08T18:44:38.302Z,2.23
2019-02-08T18:47:02.708Z,2.67
2019-02-08T18:49:27.203Z,2.80
2019-02-08T18:51:51.612Z,2.77
2019-02-08T18:54:16.026Z,2.60
2019-02-08T18:56:40.448Z,2.67
2019-02-08T18:59:05.219Z,3.20
2019-02-08T19:01:29.766Z,2.97
2019-02-08T19:03:54.284Z,3.07
2019-02-08T19:06:18.774Z,2.87
2019-02-08T19:08:43.265Z,2.50
2019-02-08T19:11:07.738Z,2.50
2019-02-08T19:13:32.136Z,2.60
2019-02-08T19:15:56.659Z,2.33
2019-02-08T19:18:21.050Z,2.60
2019-02-08T19:20:45.566Z,2.30
2019-02-08T19:23:10.036Z,2.10
2019-02-08T19:25:39.676Z,2.67
2019-02-08T19:28:04.514Z,2.37
2019-02-08T19:30:40.069Z,3.10
2019-02-08T19:33:05.710Z,2.70
2019-02-08T19:35:30.264Z,2.47
2019-02-08T19:37:54.813Z,2.90
2019-02-08T19:40:22.119Z,2.60
2019-02-08T19:42:46.653Z,2.40
2019-02-08T19:45:14.229Z,2.90
2019-02-08T19:47:38.764Z,2.63
2019-02-08T19:50:04.862Z,2.50
2019-02-08T19:52:29.286Z,3.10
2019-02-08T19:54:53.802Z,2.33
2019-02-08T19:57:18.235Z,2.50
2019-02-08T19:59:42.777Z,2.20
2019-02-08T20:02:07.354Z,2.70
2019-02-08T20:04:31.836Z,2.70
2019-02-08T20:06:56.329Z,2.93
2019-02-08T20:09:20.885Z,2.53
2019-02-08T20:11:45.339Z,2.80
2019-02-08T20:14:09.795Z,3.00
2019-02-08T20:16:34.327Z,2.60
2019-02-08T20:18:58.749Z,2.60
2019-02-08T20:21:23.243Z,2.20
2019-02-08T20:23:47.634Z,2.43
2019-02-08T20:26:12.127Z,2.37
2019-02-08T20:28:42.139Z,2.43
2019-02-08T20:31:02.710Z,2.83
2019-02-08T20:33:27.117Z,2.90
2019-02-08T20:35:51.633Z,3.13
2019-02-08T20:38:16.064Z,2.50
2019-02-08T20:40:43.205Z,2.30
2019-02-08T20:43:07.693Z,2.30
2019-02-08T20:45:34.119Z,2.53
2019-02-08T20:48:00.176Z,2.27
2019-02-08T20:50:25.223Z,2.27
2019-02-08T20:52:50.101Z,2.43
2019-02-08T20:55:16.953Z,2.00
2019-02-08T20:57:41.372Z,2.10
2019-02-08T21:00:20.884Z,1.87
2019-02-08T21:02:45.391Z,2.20
2019-02-08T21:05:10.239Z,2.00
2019-02-08T21:07:34.700Z,1.80
2019-02-08T21:09:59.270Z,2.37
2019-02-08T21:12:23.674Z,1.97
2019-02-08T21:14:48.170Z,2.53
2019-02-08T21:17:12.658Z,1.80
2019-02-08T21:19:37.081Z,2.00
2019-02-08T21:22:01.628Z,2.00
2019-02-08T21:24:26.051Z,1.90
2019-02-08T21:26:50.523Z,1.80
2019-02-08T21:29:14.945Z,1.77
2019-02-08T21:31:39.497Z,1.93
2019-02-08T21:34:03.994Z,1.77
2019-02-08T21:36:28.409Z,1.77
2019-02-08T21:38:52.849Z,1.93
2019-02-08T21:41:17.390Z,1.90
2019-02-08T21:43:41.792Z,1.73
2019-02-08T21:46:06.276Z,1.73
2019-02-08T21:48:30.677Z,2.37
2019-02-08T21:50:55.186Z,1.80
2019-02-08T21:53:19.711Z,1.70
2019-02-08T21:55:44.301Z,1.80
2019-02-08T21:58:08.837Z,1.60
2019-02-08T22:00:38.827Z,1.80
2019-02-08T22:03:03.465Z,1.90
2019-02-08T22:05:36.120Z,1.60
2019-02-08T22:08:00.674Z,1.80
2019-02-08T22:10:25.545Z,1.77
2019-02-08T22:12:50.158Z,1.70
2019-02-08T22:15:28.720Z,1.67
2019-02-08T22:17:53.278Z,1.93
2019-02-08T22:20:18.326Z,1.93
2019-02-08T22:22:42.829Z,1.60
2019-02-08T22:25:10.782Z,1.80
2019-02-08T22:27:35.200Z,1.60
2019-02-08T22:29:59.740Z,1.97
2019-02-08T22:32:27.248Z,1.90
2019-02-08T22:34:51.670Z,2.03
2019-02-08T22:37:16.244Z,1.80
2019-02-08T22:39:40.718Z,2.20
2019-02-08T22:42:05.393Z,1.90
2019-02-08T22:44:29.862Z,1.90
2019-02-08T22:46:54.421Z,1.80
2019-02-08T22:49:18.825Z,1.73
2019-02-08T22:51:43.329Z,2.10
2019-02-08T22:54:07.735Z,1.70
2019-02-08T22:56:32.146Z,2.33
2019-02-08T22:58:56.638Z,1.70
2019-02-08T23:01:26.445Z,1.73
2019-02-08T23:03:50.888Z,1.90
2019-02-08T23:06:15.336Z,2.00
2019-02-08T23:08:39.818Z,1.80
2019-02-08T23:11:05.273Z,2.47
2019-02-08T23:13:29.841Z,1.83
2019-02-08T23:15:54.390Z,2.33
2019-02-08T23:18:18.967Z,2.10
2019-02-08T23:20:43.365Z,1.87
2019-02-08T23:23:08.526Z,1.87
2019-02-08T23:25:33.089Z,1.93
2019-02-08T23:27:57.512Z,2.00
2019-02-08T23:30:23.142Z,1.90
2019-02-08T23:32:47.671Z,1.70
2019-02-08T23:35:13.533Z,2.13
2019-02-08T23:37:37.945Z,1.80
2019-02-08T23:40:02.434Z,1.73
2019-02-08T23:42:26.897Z,2.07
2019-02-08T23:44:51.318Z,2.13
2019-02-08T23:47:26.461Z,1.83
2019-02-08T23:49:50.891Z,1.60
2019-02-08T23:52:15.349Z,1.70
2019-02-08T23:54:39.781Z,1.70
2019-02-08T23:57:04.247Z,1.80
2019-02-08T23:59:28.748Z,1.47
